createdAt,value
2019-03-24T00:00:09.357Z,18.94
2019-03-24T00:01:23.708Z,18.94
2019-03-24T00:02:20.458Z,18.94
2019-03-24T00:03:17.166Z,18.94
2019-03-24T00:04:13.873Z,18.94
2019-03-24T00:05:10.584Z,18.94
2019-03-24T00:06:07.293Z,18.94
2019-03-24T00:07:04.009Z,18.87
2019-03-24T00:08:00.729Z,18.94
2019-03-24T00:08:57.433Z,18.94
2019-03-24T00:09:54.144Z,18.94
2019-03-24T00:10:50.848Z,18.94
2019-03-24T00:11:47.553Z,18.87
2019-03-24T00:12:44.288Z,18.87
2019-03-24T00:13:41.002Z,18.87
2019-03-24T00:14:37.701Z,18.87
2019-03-24T00:15:34.421Z,18.87
2019-03-24T00:16:31.128Z,18.87
2019-03-24T00:17:27.857Z,18.87
2019-03-24T00:18:24.565Z,18.87
2019-03-24T00:19:21.265Z,18.87
2019-03-24T00:20:17.961Z,18.87
2019-03-24T00:21:14.669Z,18.87
2019-03-24T00:22:11.393Z,18.87
2019-03-24T00:23:08.134Z,18.87
2019-03-24T00:24:04.844Z,18.87
2019-03-24T00:25:01.552Z,18.87
2019-03-24T00:25:58.253Z,18.87
2019-03-24T00:26:54.965Z,18.87
2019-03-24T00:27:51.681Z,18.87
2019-03-24T00:28:48.393Z,18.87
2019-03-24T00:29:45.103Z,18.87
2019-03-24T00:30:41.832Z,18.87
2019-03-24T00:31:38.540Z,18.87
2019-03-24T00:32:35.249Z,18.87
2019-03-24T00:33:31.980Z,18.87
2019-03-24T00:34:28.709Z,18.87
2019-03-24T00:35:25.417Z,18.87
2019-03-24T00:36:22.125Z,18.87
2019-03-24T00:37:18.826Z,18.87
2019-03-24T00:38:15.577Z,18.87
2019-03-24T00:39:12.280Z,18.87
2019-03-24T00:40:08.991Z,18.87
2019-03-24T00:41:05.713Z,18.87
2019-03-24T00:42:02.434Z,18.87
2019-03-24T00:42:59.165Z,18.87
2019-03-24T00:43:55.877Z,18.87
2019-03-24T00:44:52.594Z,18.87
2019-03-24T00:45:49.301Z,18.87
2019-03-24T00:46:46.011Z,18.87
2019-03-24T00:47:42.722Z,18.87
2019-03-24T00:48:39.461Z,18.87
2019-03-24T00:49:36.168Z,18.87
2019-03-24T00:50:32.877Z,18.81
2019-03-24T00:51:29.589Z,18.87
2019-03-24T00:52:26.296Z,18.87
2019-03-24T00:53:23.004Z,18.87
2019-03-24T00:54:19.749Z,18.81
2019-03-24T00:55:16.464Z,18.87
2019-03-24T00:56:13.177Z,18.81
2019-03-24T00:57:09.892Z,18.81
2019-03-24T00:58:06.597Z,18.81
2019-03-24T00:59:03.301Z,18.81
2019-03-24T01:00:00.040Z,18.81
2019-03-24T01:00:56.753Z,18.81
2019-03-24T01:01:53.436Z,18.81
2019-03-24T01:02:50.148Z,18.81
2019-03-24T01:03:46.853Z,18.81
2019-03-24T01:04:43.568Z,18.81
2019-03-24T01:05:40.290Z,18.81
2019-03-24T01:06:37.005Z,18.81
2019-03-24T01:07:33.713Z,18.81
2019-03-24T01:08:30.420Z,18.81
2019-03-24T01:09:27.129Z,18.81
2019-03-24T01:10:23.869Z,18.81
2019-03-24T01:11:20.573Z,18.81
2019-03-24T01:12:17.269Z,18.81
2019-03-24T01:13:13.885Z,18.81
2019-03-24T01:14:10.594Z,18.81
2019-03-24T01:15:07.310Z,18.81
2019-03-24T01:16:04.040Z,18.81
2019-03-24T01:17:00.752Z,18.81
2019-03-24T01:17:57.499Z,18.81
2019-03-24T01:18:54.172Z,18.81
2019-03-24T01:19:50.877Z,18.81
2019-03-24T01:20:47.593Z,18.81
2019-03-24T01:21:44.367Z,18.81
2019-03-24T01:22:41.028Z,18.81
2019-03-24T01:23:37.740Z,18.81
2019-03-24T01:24:34.450Z,18.81
2019-03-24T01:25:31.161Z,18.81
2019-03-24T01:26:27.865Z,18.81
2019-03-24T01:27:24.597Z,18.81
2019-03-24T01:28:21.300Z,18.81
2019-03-24T01:29:18.013Z,18.81
2019-03-24T01:30:14.728Z,18.81
2019-03-24T01:31:11.431Z,18.81
2019-03-24T01:32:08.132Z,18.81
2019-03-24T01:33:04.841Z,18.75
2019-03-24T01:34:01.548Z,18.81
2019-03-24T01:34:58.261Z,18.81
2019-03-24T01:35:54.974Z,18.81
2019-03-24T01:36:51.693Z,18.81
2019-03-24T01:37:48.486Z,18.81
2019-03-24T01:38:45.141Z,18.75
2019-03-24T01:39:41.861Z,18.75
2019-03-24T01:40:38.569Z,18.75
2019-03-24T01:41:35.272Z,18.75
2019-03-24T01:42:31.976Z,18.75
2019-03-24T01:43:28.716Z,18.75
2019-03-24T01:44:25.426Z,18.75
2019-03-24T01:45:22.132Z,18.75
2019-03-24T01:46:18.850Z,18.75
2019-03-24T01:47:15.561Z,18.75
2019-03-24T01:48:12.270Z,18.75
2019-03-24T01:49:08.996Z,18.75
2019-03-24T01:50:05.711Z,18.75
2019-03-24T01:51:02.429Z,18.75
2019-03-24T01:51:59.134Z,18.75
2019-03-24T01:52:55.849Z,18.75
2019-03-24T01:53:52.561Z,18.75
2019-03-24T01:54:49.300Z,18.75
2019-03-24T01:55:46.015Z,18.75
2019-03-24T01:56:42.722Z,18.75
2019-03-24T01:57:39.429Z,18.75
2019-03-24T01:58:36.196Z,18.75
2019-03-24T01:59:32.858Z,18.75
2019-03-24T02:00:29.564Z,18.75
2019-03-24T02:01:26.293Z,18.75
2019-03-24T02:02:23.009Z,18.75
2019-03-24T02:03:19.725Z,18.75
2019-03-24T02:04:16.432Z,18.75
2019-03-24T02:05:13.165Z,18.75
2019-03-24T02:06:09.873Z,18.75
2019-03-24T02:07:06.592Z,18.75
2019-03-24T02:08:03.276Z,18.75
2019-03-24T02:08:59.890Z,18.69
2019-03-24T02:09:56.601Z,18.69
2019-03-24T02:10:53.343Z,18.69
2019-03-24T02:11:50.935Z,18.69
2019-03-24T02:12:47.752Z,18.69
2019-03-24T02:13:44.468Z,18.69
2019-03-24T02:14:41.160Z,18.69
2019-03-24T02:15:37.874Z,18.69
2019-03-24T02:16:34.609Z,18.69
2019-03-24T02:17:31.318Z,18.69
2019-03-24T02:18:28.029Z,18.69
2019-03-24T02:19:24.737Z,18.69
2019-03-24T02:20:21.443Z,18.69
2019-03-24T02:21:18.145Z,18.69
2019-03-24T02:22:14.891Z,18.69
2019-03-24T02:23:11.592Z,18.69
2019-03-24T02:24:08.299Z,18.69
2019-03-24T02:25:04.996Z,18.69
2019-03-24T02:26:01.716Z,18.69
2019-03-24T02:26:58.434Z,18.69
2019-03-24T02:27:55.149Z,18.69
2019-03-24T02:28:51.857Z,18.69
2019-03-24T02:29:48.562Z,18.69
2019-03-24T02:30:45.278Z,18.69
2019-03-24T02:31:42.014Z,18.69
2019-03-24T02:32:38.720Z,18.69
2019-03-24T02:33:35.433Z,18.69
2019-03-24T02:34:32.139Z,18.69
2019-03-24T02:35:28.850Z,18.69
2019-03-24T02:36:25.553Z,18.69
2019-03-24T02:37:22.281Z,18.69
2019-03-24T02:38:19.005Z,18.62
2019-03-24T02:39:15.710Z,18.69
2019-03-24T02:40:12.421Z,18.69
2019-03-24T02:41:09.137Z,18.69
2019-03-24T02:42:05.825Z,18.62
2019-03-24T02:43:02.466Z,18.62
2019-03-24T02:43:59.183Z,18.62
2019-03-24T02:44:55.897Z,18.62
2019-03-24T02:45:52.603Z,18.62
2019-03-24T02:46:49.325Z,18.62
2019-03-24T02:47:46.041Z,18.62
2019-03-24T02:48:42.753Z,18.62
2019-03-24T02:49:39.467Z,18.62
2019-03-24T02:50:36.175Z,18.62
2019-03-24T02:51:32.878Z,18.62
2019-03-24T02:52:29.589Z,18.62
2019-03-24T02:53:26.334Z,18.62
2019-03-24T02:54:23.042Z,18.62
2019-03-24T02:55:19.749Z,18.62
2019-03-24T02:56:16.454Z,18.62
2019-03-24T02:57:13.171Z,18.62
2019-03-24T02:58:09.882Z,18.62
2019-03-24T02:59:06.622Z,18.62
2019-03-24T03:00:03.338Z,18.62
2019-03-24T03:01:00.054Z,18.62
2019-03-24T03:01:56.773Z,18.62
2019-03-24T03:02:53.483Z,18.62
2019-03-24T03:03:50.205Z,18.62
2019-03-24T03:04:46.907Z,18.62
2019-03-24T03:05:43.614Z,18.62
2019-03-24T03:06:40.326Z,18.62
2019-03-24T03:07:37.033Z,18.62
2019-03-24T03:08:33.733Z,18.62
2019-03-24T03:09:30.457Z,18.62
2019-03-24T03:10:27.171Z,18.62
2019-03-24T03:11:23.878Z,18.62
2019-03-24T03:12:20.590Z,18.62
2019-03-24T03:13:17.298Z,18.62
2019-03-24T03:14:14.021Z,18.62
2019-03-24T03:15:13.794Z,18.62
2019-03-24T03:16:10.503Z,18.62
2019-03-24T03:17:07.225Z,18.56
2019-03-24T03:18:03.938Z,18.56
2019-03-24T03:19:00.642Z,18.62
2019-03-24T03:19:57.377Z,18.56
2019-03-24T03:20:54.077Z,18.56
2019-03-24T03:21:50.780Z,18.62
2019-03-24T03:22:47.489Z,18.56
2019-03-24T03:23:44.194Z,18.56
2019-03-24T03:24:40.897Z,18.56
2019-03-24T03:25:37.637Z,18.56
2019-03-24T03:26:34.350Z,18.56
2019-03-24T03:27:31.057Z,18.56
2019-03-24T03:28:27.762Z,18.56
2019-03-24T03:29:24.468Z,18.56
2019-03-24T03:30:21.224Z,18.56
2019-03-24T03:31:17.925Z,18.56
2019-03-24T03:32:14.638Z,18.56
2019-03-24T03:33:11.357Z,18.56
2019-03-24T03:34:08.054Z,18.56
2019-03-24T03:35:04.769Z,18.56
2019-03-24T03:36:01.495Z,18.56
2019-03-24T03:36:58.203Z,18.56
2019-03-24T03:37:54.916Z,18.56
2019-03-24T03:38:51.627Z,18.56
2019-03-24T03:39:48.346Z,18.56
2019-03-24T03:40:45.078Z,18.56
2019-03-24T03:41:41.787Z,18.56
2019-03-24T03:42:38.523Z,18.56
2019-03-24T03:43:35.208Z,18.56
2019-03-24T03:44:31.922Z,18.56
2019-03-24T03:45:28.642Z,18.56
2019-03-24T03:46:25.330Z,18.56
2019-03-24T03:47:22.071Z,18.56
2019-03-24T03:48:18.775Z,18.56
2019-03-24T03:49:15.486Z,18.56
2019-03-24T03:50:12.193Z,18.56
2019-03-24T03:51:08.902Z,18.56
2019-03-24T03:52:05.617Z,18.56
2019-03-24T03:53:02.357Z,18.56
2019-03-24T03:53:59.394Z,18.56
2019-03-24T03:54:56.265Z,18.56
2019-03-24T03:55:52.978Z,18.56
2019-03-24T03:56:49.686Z,18.56
2019-03-24T03:57:46.394Z,18.56
2019-03-24T03:58:43.122Z,18.56
2019-03-24T03:59:39.826Z,18.56
2019-03-24T04:00:36.541Z,18.50
2019-03-24T04:01:33.242Z,18.50
2019-03-24T04:02:29.950Z,18.50
2019-03-24T04:03:26.660Z,18.56
2019-03-24T04:04:23.366Z,18.50
2019-03-24T04:05:20.084Z,18.50
2019-03-24T04:06:16.785Z,18.50
2019-03-24T04:07:13.488Z,18.50
2019-03-24T04:08:10.207Z,18.50
2019-03-24T04:09:06.945Z,18.50
2019-03-24T04:10:03.652Z,18.50
2019-03-24T04:11:00.358Z,18.50
2019-03-24T04:11:57.069Z,18.50
2019-03-24T04:12:53.778Z,18.50
2019-03-24T04:13:50.499Z,18.50
2019-03-24T04:14:47.230Z,18.50
2019-03-24T04:15:43.935Z,18.50
2019-03-24T04:16:40.646Z,18.50
2019-03-24T04:17:37.373Z,18.50
2019-03-24T04:18:34.065Z,18.50
2019-03-24T04:19:30.776Z,18.50
2019-03-24T04:20:27.519Z,18.50
2019-03-24T04:21:24.225Z,18.50
2019-03-24T04:22:20.940Z,18.50
2019-03-24T04:23:17.638Z,18.50
2019-03-24T04:24:14.351Z,18.50
2019-03-24T04:25:14.301Z,18.50
2019-03-24T04:26:11.056Z,18.50
2019-03-24T04:27:07.739Z,18.50
2019-03-24T04:28:04.454Z,18.50
2019-03-24T04:29:01.161Z,18.50
2019-03-24T04:29:57.876Z,18.50
2019-03-24T04:30:54.569Z,18.50
2019-03-24T04:31:51.294Z,18.50
2019-03-24T04:32:48.005Z,18.50
2019-03-24T04:33:44.718Z,18.50
2019-03-24T04:34:41.417Z,18.50
2019-03-24T04:35:38.124Z,18.50
2019-03-24T04:36:34.844Z,18.50
2019-03-24T04:37:33.146Z,18.50
2019-03-24T04:38:29.915Z,18.50
2019-03-24T04:39:26.623Z,18.50
2019-03-24T04:40:23.333Z,18.50
2019-03-24T04:41:20.042Z,18.50
2019-03-24T04:42:16.778Z,18.44
2019-03-24T04:43:13.482Z,18.50
2019-03-24T04:44:10.190Z,18.44
2019-03-24T04:45:06.897Z,18.44
2019-03-24T04:46:03.618Z,18.44
2019-03-24T04:47:00.344Z,18.44
2019-03-24T04:47:56.965Z,18.44
2019-03-24T04:48:53.689Z,18.44
2019-03-24T04:49:50.389Z,18.44
2019-03-24T04:50:47.096Z,18.44
2019-03-24T04:51:43.801Z,18.44
2019-03-24T04:52:40.545Z,18.44
2019-03-24T04:53:37.253Z,18.44
2019-03-24T04:54:33.968Z,18.44
2019-03-24T04:55:30.678Z,18.44
2019-03-24T04:56:27.393Z,18.44
2019-03-24T04:57:24.105Z,18.44
2019-03-24T04:58:20.848Z,18.44
2019-03-24T04:59:17.551Z,18.44
2019-03-24T05:00:14.266Z,18.44
2019-03-24T05:01:10.966Z,18.44
2019-03-24T05:02:07.696Z,18.44
2019-03-24T05:03:04.381Z,18.44
2019-03-24T05:04:01.133Z,18.44
2019-03-24T05:04:57.836Z,18.44
2019-03-24T05:05:54.548Z,18.44
2019-03-24T05:06:51.253Z,18.44
2019-03-24T05:07:47.973Z,18.44
2019-03-24T05:08:44.687Z,18.44
2019-03-24T05:09:41.425Z,18.44
2019-03-24T05:10:38.137Z,18.44
2019-03-24T05:11:34.855Z,18.44
2019-03-24T05:12:31.565Z,18.44
2019-03-24T05:13:28.269Z,18.44
2019-03-24T05:14:24.980Z,18.44
2019-03-24T05:15:21.713Z,18.44
2019-03-24T05:16:18.421Z,18.44
2019-03-24T05:17:15.120Z,18.44
2019-03-24T05:18:11.840Z,18.44
2019-03-24T05:19:08.545Z,18.44
2019-03-24T05:20:05.261Z,18.44
2019-03-24T05:21:01.994Z,18.44
2019-03-24T05:21:58.696Z,18.44
2019-03-24T05:22:55.400Z,18.44
2019-03-24T05:23:52.109Z,18.44
2019-03-24T05:24:48.819Z,18.44
2019-03-24T05:25:45.525Z,18.44
2019-03-24T05:26:42.249Z,18.44
2019-03-24T05:27:38.966Z,18.44
2019-03-24T05:28:35.675Z,18.44
2019-03-24T05:29:32.378Z,18.44
2019-03-24T05:30:29.080Z,18.44
2019-03-24T05:31:25.821Z,18.37
2019-03-24T05:32:22.525Z,18.44
2019-03-24T05:33:19.234Z,18.44
2019-03-24T05:34:15.943Z,18.37
2019-03-24T05:35:12.655Z,18.44
2019-03-24T05:36:09.377Z,18.37
2019-03-24T05:37:06.108Z,18.37
2019-03-24T05:38:02.827Z,18.37
2019-03-24T05:38:59.542Z,18.37
2019-03-24T05:39:56.256Z,18.37
2019-03-24T05:40:52.967Z,18.37
2019-03-24T05:41:49.702Z,18.37
2019-03-24T05:42:46.421Z,18.37
2019-03-24T05:43:43.128Z,18.37
2019-03-24T05:44:39.841Z,18.37
2019-03-24T05:45:36.553Z,18.37
2019-03-24T05:46:33.266Z,18.37
2019-03-24T05:47:37.027Z,18.37
2019-03-24T05:48:28.497Z,18.37
2019-03-24T05:49:25.201Z,18.37
2019-03-24T05:50:21.923Z,18.37
2019-03-24T05:51:18.613Z,18.37
2019-03-24T05:52:15.320Z,18.37
2019-03-24T05:53:12.052Z,18.37
2019-03-24T05:54:08.763Z,18.37
2019-03-24T05:55:05.478Z,18.37
2019-03-24T05:56:02.180Z,18.37
2019-03-24T05:56:58.887Z,18.37
2019-03-24T05:57:55.593Z,18.37
2019-03-24T05:58:52.325Z,18.37
2019-03-24T05:59:49.034Z,18.37
2019-03-24T06:00:45.745Z,18.37
2019-03-24T06:01:42.453Z,18.37
2019-03-24T06:02:39.183Z,18.37
2019-03-24T06:03:35.874Z,18.37
2019-03-24T06:04:32.600Z,18.37
2019-03-24T06:05:29.220Z,18.37
2019-03-24T06:06:25.929Z,18.37
2019-03-24T06:07:22.636Z,18.37
2019-03-24T06:08:19.340Z,18.37
2019-03-24T06:09:16.049Z,18.37
2019-03-24T06:10:12.781Z,18.37
2019-03-24T06:11:09.493Z,18.37
2019-03-24T06:12:06.201Z,18.37
2019-03-24T06:13:02.914Z,18.37
2019-03-24T06:13:59.616Z,18.37
2019-03-24T06:14:56.325Z,18.37
2019-03-24T06:15:53.054Z,18.37
2019-03-24T06:16:49.765Z,18.37
2019-03-24T06:17:48.032Z,18.37
2019-03-24T06:18:44.881Z,18.37
2019-03-24T06:19:41.584Z,18.37
2019-03-24T06:20:38.293Z,18.37
2019-03-24T06:21:34.996Z,18.37
2019-03-24T06:22:31.700Z,18.37
2019-03-24T06:23:28.416Z,18.37
2019-03-24T06:24:25.122Z,18.37
2019-03-24T06:25:21.826Z,18.37
2019-03-24T06:26:18.574Z,18.37
2019-03-24T06:27:15.283Z,18.37
2019-03-24T06:28:11.985Z,18.37
2019-03-24T06:29:08.697Z,18.37
2019-03-24T06:30:05.401Z,18.37
2019-03-24T06:31:02.113Z,18.37
2019-03-24T06:31:58.841Z,18.37
2019-03-24T06:32:55.545Z,18.37
2019-03-24T06:33:52.253Z,18.37
2019-03-24T06:34:48.953Z,18.37
2019-03-24T06:35:45.658Z,18.37
2019-03-24T06:36:42.398Z,18.37
2019-03-24T06:37:39.100Z,18.37
2019-03-24T06:38:35.805Z,18.37
2019-03-24T06:39:32.522Z,18.37
2019-03-24T06:40:29.224Z,18.31
2019-03-24T06:41:25.935Z,18.37
2019-03-24T06:42:22.645Z,18.37
2019-03-24T06:43:19.357Z,18.37
2019-03-24T06:44:16.061Z,18.37
2019-03-24T06:45:12.797Z,18.37
2019-03-24T06:46:09.501Z,18.37
2019-03-24T06:47:06.204Z,18.31
2019-03-24T06:48:02.951Z,18.37
2019-03-24T06:48:59.656Z,18.31
2019-03-24T06:49:56.365Z,18.31
2019-03-24T06:50:53.076Z,18.37
2019-03-24T06:51:49.777Z,18.31
2019-03-24T06:52:46.488Z,18.31
2019-03-24T06:53:43.226Z,18.31
2019-03-24T06:54:39.957Z,18.31
2019-03-24T06:55:36.665Z,18.31
2019-03-24T06:56:33.377Z,18.31
2019-03-24T06:57:30.088Z,18.31
2019-03-24T06:58:26.791Z,18.31
2019-03-24T06:59:23.537Z,18.31
2019-03-24T07:00:20.248Z,18.31
2019-03-24T07:01:16.953Z,18.31
2019-03-24T07:02:13.669Z,17.94
2019-03-24T07:03:10.388Z,17.31
2019-03-24T07:04:07.092Z,17.19
2019-03-24T07:05:03.828Z,17.37
2019-03-24T07:06:00.528Z,18.31
2019-03-24T07:06:57.253Z,20.12
2019-03-24T07:07:53.961Z,22.62
2019-03-24T07:08:50.677Z,25.12
2019-03-24T07:09:47.380Z,27.19
2019-03-24T07:10:44.114Z,28.81
2019-03-24T07:11:40.824Z,30.06
2019-03-24T07:12:37.550Z,30.88
2019-03-24T07:13:34.266Z,31.56
2019-03-24T07:14:30.964Z,32.00
2019-03-24T07:15:27.697Z,32.38
2019-03-24T07:16:24.418Z,32.63
2019-03-24T07:17:21.125Z,32.88
2019-03-24T07:18:17.826Z,33.13
2019-03-24T07:19:14.567Z,33.38
2019-03-24T07:20:11.265Z,33.69
2019-03-24T07:21:08.006Z,33.94
2019-03-24T07:22:04.738Z,34.19
2019-03-24T07:23:01.439Z,34.44
2019-03-24T07:23:58.143Z,34.75
2019-03-24T07:24:54.848Z,35.00
2019-03-24T07:25:51.581Z,35.25
2019-03-24T07:26:48.290Z,35.44
2019-03-24T07:27:44.998Z,35.63
2019-03-24T07:28:41.769Z,35.88
2019-03-24T07:29:38.428Z,36.06
2019-03-24T07:30:35.133Z,36.25
2019-03-24T07:31:31.853Z,36.44
2019-03-24T07:32:28.560Z,36.63
2019-03-24T07:33:25.269Z,36.75
2019-03-24T07:34:21.973Z,37.00
2019-03-24T07:35:18.677Z,37.25
2019-03-24T07:36:15.425Z,37.44
2019-03-24T07:37:12.133Z,37.69
2019-03-24T07:38:08.848Z,37.88
2019-03-24T07:39:05.583Z,38.06
2019-03-24T07:40:02.293Z,38.19
2019-03-24T07:40:59.010Z,38.38
2019-03-24T07:41:55.758Z,38.50
2019-03-24T07:42:52.465Z,38.38
2019-03-24T07:43:49.200Z,38.06
2019-03-24T07:44:45.921Z,37.81
2019-03-24T07:45:42.625Z,37.56
2019-03-24T07:46:39.327Z,37.38
2019-03-24T07:47:36.041Z,37.25
2019-03-24T07:48:32.757Z,37.06
2019-03-24T07:49:29.464Z,36.94
2019-03-24T07:50:26.164Z,36.81
2019-03-24T07:51:22.864Z,36.69
2019-03-24T07:52:19.589Z,36.31
2019-03-24T07:53:16.302Z,35.75
2019-03-24T07:54:13.009Z,34.81
2019-03-24T07:55:09.763Z,33.56
2019-03-24T07:56:06.468Z,32.19
2019-03-24T07:57:03.165Z,30.94
2019-03-24T07:57:59.877Z,30.56
2019-03-24T07:58:56.585Z,31.25
2019-03-24T07:59:53.321Z,32.75
2019-03-24T08:00:50.036Z,34.31
2019-03-24T08:01:46.753Z,35.81
2019-03-24T08:02:50.847Z,37.00
2019-03-24T08:03:41.988Z,37.81
2019-03-24T08:04:38.700Z,37.94
2019-03-24T08:05:35.445Z,37.81
2019-03-24T08:06:32.152Z,37.63
2019-03-24T08:07:28.856Z,37.38
2019-03-24T08:08:25.565Z,37.19
2019-03-24T08:09:22.281Z,37.00
2019-03-24T08:10:18.993Z,36.81
2019-03-24T08:11:15.725Z,36.56
2019-03-24T08:12:12.445Z,36.25
2019-03-24T08:13:09.158Z,35.75
2019-03-24T08:14:05.866Z,34.94
2019-03-24T08:15:02.582Z,33.88
2019-03-24T08:15:59.313Z,32.56
2019-03-24T08:16:56.031Z,31.25
2019-03-24T08:17:52.741Z,30.44
2019-03-24T08:18:49.449Z,30.75
2019-03-24T08:19:46.161Z,32.00
2019-03-24T08:20:42.869Z,33.63
2019-03-24T08:21:39.611Z,35.31
2019-03-24T08:22:36.324Z,36.63
2019-03-24T08:23:33.033Z,37.25
2019-03-24T08:24:29.733Z,37.38
2019-03-24T08:25:26.467Z,37.25
2019-03-24T08:26:23.196Z,37.06
2019-03-24T08:27:19.924Z,36.88
2019-03-24T08:28:16.641Z,36.69
2019-03-24T08:29:13.356Z,36.50
2019-03-24T08:30:10.061Z,36.19
2019-03-24T08:31:06.770Z,35.81
2019-03-24T08:32:03.473Z,35.13
2019-03-24T08:33:00.205Z,34.25
2019-03-24T08:33:56.916Z,33.19
2019-03-24T08:34:53.621Z,31.94
2019-03-24T08:35:50.352Z,30.75
2019-03-24T08:36:47.100Z,30.25
2019-03-24T08:37:43.826Z,30.94
2019-03-24T08:38:40.534Z,32.44
2019-03-24T08:39:37.241Z,34.19
2019-03-24T08:40:33.935Z,35.81
2019-03-24T08:41:30.649Z,36.75
2019-03-24T08:42:27.365Z,37.06
2019-03-24T08:43:24.105Z,37.06
2019-03-24T08:44:20.815Z,36.94
2019-03-24T08:45:17.520Z,36.69
2019-03-24T08:46:14.454Z,36.50
2019-03-24T08:47:11.161Z,36.25
2019-03-24T08:48:07.869Z,35.88
2019-03-24T08:49:04.605Z,35.38
2019-03-24T08:50:01.313Z,34.63
2019-03-24T08:50:58.022Z,33.75
2019-03-24T08:51:54.755Z,32.69
2019-03-24T08:52:51.609Z,31.56
2019-03-24T08:53:48.322Z,30.50
2019-03-24T08:54:45.074Z,30.12
2019-03-24T08:55:41.793Z,30.88
2019-03-24T08:56:40.893Z,32.38
2019-03-24T08:57:37.606Z,34.13
2019-03-24T08:58:34.317Z,35.63
2019-03-24T08:59:31.057Z,36.50
2019-03-24T09:00:30.964Z,36.75
2019-03-24T09:01:26.269Z,36.69
2019-03-24T09:02:22.976Z,36.50
2019-03-24T09:03:20.514Z,36.31
2019-03-24T09:04:17.217Z,36.00
2019-03-24T09:05:13.949Z,35.56
2019-03-24T09:06:10.570Z,35.00
2019-03-24T09:07:07.277Z,34.25
2019-03-24T09:08:04.001Z,33.38
2019-03-24T09:09:00.698Z,32.44
2019-03-24T09:09:57.416Z,31.37
2019-03-24T09:10:54.146Z,30.44
2019-03-24T09:11:50.857Z,29.94
2019-03-24T09:12:47.566Z,30.50
2019-03-24T09:13:44.276Z,31.94
2019-03-24T09:14:40.989Z,33.63
2019-03-24T09:15:37.692Z,35.19
2019-03-24T09:16:34.421Z,36.19
2019-03-24T09:17:31.206Z,36.50
2019-03-24T09:18:27.931Z,36.50
2019-03-24T09:19:24.637Z,36.31
2019-03-24T09:20:21.355Z,36.06
2019-03-24T09:21:19.594Z,35.69
2019-03-24T09:22:16.409Z,35.19
2019-03-24T09:23:13.127Z,34.56
2019-03-24T09:24:09.822Z,33.81
2019-03-24T09:25:06.529Z,32.94
2019-03-24T09:26:03.227Z,32.00
2019-03-24T09:26:59.948Z,31.00
2019-03-24T09:27:56.645Z,30.12
2019-03-24T09:28:53.367Z,29.81
2019-03-24T09:29:50.062Z,30.62
2019-03-24T09:30:46.772Z,32.13
2019-03-24T09:31:43.512Z,33.75
2019-03-24T09:32:40.218Z,35.25
2019-03-24T09:33:36.940Z,36.06
2019-03-24T09:34:33.649Z,36.31
2019-03-24T09:35:30.350Z,36.25
2019-03-24T09:36:27.057Z,36.00
2019-03-24T09:37:23.784Z,35.69
2019-03-24T09:38:20.497Z,35.25
2019-03-24T09:39:17.209Z,34.69
2019-03-24T09:40:13.921Z,33.94
2019-03-24T09:41:10.625Z,33.13
2019-03-24T09:42:07.337Z,32.31
2019-03-24T09:43:04.081Z,31.44
2019-03-24T09:44:00.788Z,30.50
2019-03-24T09:44:57.498Z,29.81
2019-03-24T09:45:56.106Z,29.75
2019-03-24T09:46:52.712Z,30.75
2019-03-24T09:47:49.455Z,32.31
2019-03-24T09:48:46.165Z,33.94
2019-03-24T09:49:42.886Z,35.25
2019-03-24T09:50:39.588Z,35.88
2019-03-24T09:51:36.304Z,35.94
2019-03-24T09:52:33.009Z,35.81
2019-03-24T09:53:29.740Z,35.50
2019-03-24T09:54:26.465Z,35.13
2019-03-24T09:55:23.173Z,34.56
2019-03-24T09:56:19.896Z,33.88
2019-03-24T09:57:16.601Z,33.13
2019-03-24T09:58:13.330Z,32.31
2019-03-24T09:59:10.062Z,31.56
2019-03-24T10:00:06.770Z,30.88
2019-03-24T10:01:03.473Z,30.25
2019-03-24T10:02:00.183Z,29.75
2019-03-24T10:02:56.898Z,29.31
2019-03-24T10:03:53.632Z,28.94
2019-03-24T10:04:50.336Z,28.50
2019-03-24T10:05:47.059Z,28.12
2019-03-24T10:06:46.777Z,27.81
2019-03-24T10:07:43.489Z,27.50
2019-03-24T10:08:46.997Z,27.25
2019-03-24T10:09:38.726Z,27.06
2019-03-24T10:10:35.445Z,26.94
2019-03-24T10:11:32.151Z,26.81
2019-03-24T10:12:28.855Z,26.69
2019-03-24T10:13:25.568Z,26.56
2019-03-24T10:14:22.298Z,26.50
2019-03-24T10:15:19.013Z,26.44
2019-03-24T10:16:15.729Z,26.37
2019-03-24T10:17:12.432Z,26.25
2019-03-24T10:18:09.141Z,26.19
2019-03-24T10:19:13.522Z,26.12
2019-03-24T10:20:04.372Z,26.06
2019-03-24T10:21:01.133Z,25.94
2019-03-24T10:21:57.794Z,25.88
2019-03-24T10:22:54.502Z,25.81
2019-03-24T10:23:51.204Z,25.75
2019-03-24T10:24:47.916Z,25.69
2019-03-24T10:25:44.649Z,25.62
2019-03-24T10:26:41.354Z,25.56
2019-03-24T10:27:38.053Z,25.50
2019-03-24T10:28:34.762Z,25.44
2019-03-24T10:29:31.480Z,25.37
2019-03-24T10:30:28.197Z,25.31
2019-03-24T10:31:24.904Z,25.25
2019-03-24T10:32:21.618Z,25.19
2019-03-24T10:33:18.325Z,25.12
2019-03-24T10:34:15.041Z,25.06
2019-03-24T10:35:14.605Z,25.00
2019-03-24T10:36:11.325Z,24.94
2019-03-24T10:37:08.029Z,24.94
2019-03-24T10:38:04.732Z,24.87
2019-03-24T10:39:01.437Z,24.81
2019-03-24T10:39:58.141Z,24.75
2019-03-24T10:40:54.874Z,24.69
2019-03-24T10:41:51.580Z,24.63
2019-03-24T10:42:48.293Z,24.63
2019-03-24T10:43:45.004Z,24.56
2019-03-24T10:44:41.713Z,24.50
2019-03-24T10:45:38.425Z,24.44
2019-03-24T10:46:35.136Z,24.37
2019-03-24T10:47:31.849Z,24.37
2019-03-24T10:48:33.662Z,24.31
2019-03-24T10:49:27.070Z,24.25
2019-03-24T10:50:23.790Z,24.25
2019-03-24T10:51:20.521Z,24.19
2019-03-24T10:52:17.228Z,24.12
2019-03-24T10:53:13.933Z,24.06
2019-03-24T10:54:10.646Z,24.06
2019-03-24T10:55:07.351Z,24.00
2019-03-24T10:56:04.161Z,23.94
2019-03-24T10:57:00.896Z,23.87
2019-03-24T10:57:57.621Z,23.87
2019-03-24T10:58:54.332Z,23.81
2019-03-24T10:59:51.045Z,23.81
2019-03-24T11:00:47.753Z,23.75
2019-03-24T11:01:44.453Z,23.75
2019-03-24T11:02:41.198Z,23.69
2019-03-24T11:03:37.914Z,23.69
2019-03-24T11:04:34.612Z,23.62
2019-03-24T11:05:31.316Z,23.62
2019-03-24T11:06:28.024Z,23.56
2019-03-24T11:07:24.729Z,23.50
2019-03-24T11:08:21.462Z,23.50
2019-03-24T11:09:18.172Z,23.44
2019-03-24T11:10:14.884Z,23.44
2019-03-24T11:11:11.591Z,23.38
2019-03-24T11:12:08.309Z,23.31
2019-03-24T11:13:05.014Z,23.31
2019-03-24T11:14:01.750Z,23.25
2019-03-24T11:14:58.457Z,23.25
2019-03-24T11:15:55.176Z,23.19
2019-03-24T11:16:51.876Z,23.19
2019-03-24T11:17:48.601Z,23.12
2019-03-24T11:18:45.321Z,23.12
2019-03-24T11:19:42.052Z,23.06
2019-03-24T11:20:38.772Z,23.06
2019-03-24T11:21:35.481Z,23.00
2019-03-24T11:22:32.189Z,23.00
2019-03-24T11:23:28.893Z,22.94
2019-03-24T11:24:25.625Z,22.94
2019-03-24T11:25:22.332Z,22.87
2019-03-24T11:26:19.043Z,22.87
2019-03-24T11:27:15.744Z,22.87
2019-03-24T11:28:12.467Z,22.81
2019-03-24T11:29:09.175Z,22.81
2019-03-24T11:30:05.928Z,22.75
2019-03-24T11:31:02.630Z,22.75
2019-03-24T11:31:59.332Z,22.69
2019-03-24T11:32:56.037Z,22.69
2019-03-24T11:33:52.745Z,22.62
2019-03-24T11:34:49.453Z,22.62
2019-03-24T11:35:46.188Z,22.62
2019-03-24T11:36:42.896Z,22.56
2019-03-24T11:37:39.605Z,22.56
2019-03-24T11:38:36.321Z,22.56
2019-03-24T11:39:33.034Z,22.50
2019-03-24T11:40:29.762Z,22.50
2019-03-24T11:41:26.476Z,22.50
2019-03-24T11:42:23.177Z,22.44
2019-03-24T11:43:19.901Z,22.44
2019-03-24T11:44:16.613Z,22.37
2019-03-24T11:45:13.326Z,22.37
2019-03-24T11:46:10.062Z,22.37
2019-03-24T11:47:06.768Z,22.31
2019-03-24T11:48:03.477Z,22.31
2019-03-24T11:49:00.192Z,22.31
2019-03-24T11:49:56.907Z,22.25
2019-03-24T11:50:53.649Z,22.25
2019-03-24T11:51:50.354Z,22.25
2019-03-24T11:52:47.065Z,22.25
2019-03-24T11:53:43.774Z,22.19
2019-03-24T11:54:40.493Z,22.19
2019-03-24T11:55:37.211Z,22.13
2019-03-24T11:56:33.946Z,22.13
2019-03-24T11:57:30.657Z,22.13
2019-03-24T11:58:27.364Z,22.13
2019-03-24T11:59:24.068Z,22.06
2019-03-24T12:00:20.776Z,22.06
2019-03-24T12:01:17.489Z,22.44
2019-03-24T12:02:14.193Z,22.94
2019-03-24T12:03:10.904Z,23.38
2019-03-24T12:04:07.618Z,24.06
2019-03-24T12:05:04.333Z,25.19
2019-03-24T12:06:01.029Z,27.06
2019-03-24T12:06:57.761Z,29.19
2019-03-24T12:07:54.471Z,31.12
2019-03-24T12:08:51.179Z,32.81
2019-03-24T12:09:47.889Z,34.19
2019-03-24T12:10:44.597Z,35.25